Time;durP1;ratioP1;P1;durP2;ratioP2;P2;SDS_P1;SDS_P2;PMS_P1;PMS_P2;Temp;Humidity;BMP_temperature;BMP_pressure;BME280_temperature;BME280_humidity;BME280_pressure;Samples;Min_cycle;Max_cycle;Signal;HPM_P1;HPM_P2
2023/08/01 00:00:39;;;;;;;49.70;21.98;;;15.70;99.90;;;;;;4972045;28;20397;-85
2023/08/01 00:03:05;;;;;;;45.67;22.35;;;15.80;99.90;;;;;;4967337;28;20046;-85
2023/08/01 00:05:31;;;;;;;32.22;18.52;;;15.80;99.90;;;;;;4959897;28;20042;-86
2023/08/01 00:07:56;;;;;;;54.13;22.95;;;15.80;99.90;;;;;;4972523;28;20412;-85
2023/08/01 00:10:22;;;;;;;49.10;20.40;;;15.80;99.90;;;;;;4959851;28;20121;-85
2023/08/01 00:12:48;;;;;;;42.47;19.65;;;15.70;99.90;;;;;;4983451;28;20042;-85
2023/08/01 00:15:13;;;;;;;39.65;18.83;;;15.80;99.90;;;;;;4975860;28;20038;-85
2023/08/01 00:17:39;;;;;;;41.05;18.27;;;15.80;99.90;;;;;;4978380;28;20100;-85
2023/08/01 00:20:07;;;;;;;37.10;18.38;;;15.80;99.90;;;;;;4973960;28;20437;-85
2023/08/01 00:22:33;;;;;;;34.13;16.52;;;15.70;99.90;;;;;;4983218;28;20092;-85
2023/08/01 00:24:58;;;;;;;27.52;14.88;;;15.70;99.90;;;;;;4974584;28;20038;-86
2023/08/01 00:27:24;;;;;;;40.22;16.92;;;15.70;99.90;;;;;;4960648;28;20108;-85
2023/08/01 00:29:49;;;;;;;33.25;17.80;;;15.70;99.90;;;;;;4990623;28;20038;-85
2023/08/01 00:32:15;;;;;;;26.98;14.30;;;15.70;99.90;;;;;;4981731;28;20079;-85
2023/08/01 00:34:41;;;;;;;36.75;18.25;;;15.70;99.90;;;;;;4978523;28;20042;-85
2023/08/01 00:37:06;;;;;;;43.45;19.25;;;15.60;99.90;;;;;;4978550;28;20074;-84
2023/08/01 00:39:32;;;;;;;42.72;18.38;;;15.60;99.90;;;;;;4968481;28;20035;-85
2023/08/01 00:41:58;;;;;;;55.22;21.17;;;15.70;99.90;;;;;;4981627;28;20042;-85
2023/08/01 00:44:23;;;;;;;44.90;19.95;;;15.70;99.90;;;;;;4981294;28;20596;-85
2023/08/01 00:46:49;;;;;;;36.10;17.98;;;15.60;99.90;;;;;;4969899;28;20129;-85
2023/08/01 00:49:15;;;;;;;57.53;22.45;;;15.60;99.90;;;;;;4985922;28;20129;-85
2023/08/01 00:51:42;;;;;;;42.35;20.75;;;15.60;99.90;;;;;;4966875;28;20078;-86
2023/08/01 00:54:08;;;;;;;36.83;19.50;;;15.60;99.90;;;;;;4970182;28;20496;-85
2023/08/01 00:56:34;;;;;;;30.73;17.13;;;15.60;99.90;;;;;;4973559;28;20039;-84
2023/08/01 00:59:00;;;;;;;40.53;19.90;;;15.60;99.90;;;;;;4995081;28;20061;-85
2023/08/01 01:01:26;;;;;;;61.25;25.35;;;15.60;99.90;;;;;;4969893;28;20444;-85
2023/08/01 01:03:52;;;;;;;32.55;18.63;;;15.60;99.90;;;;;;4971975;28;20097;-85
2023/08/01 01:06:26;;;;;;;47.40;21.55;;;15.50;99.90;;;;;;4977920;28;20046;-84
2023/08/01 01:08:53;;;;;;;37.45;21.52;;;15.50;99.90;;;;;;4991999;28;20485;-84
2023/08/01 01:11:19;;;;;;;38.33;20.02;;;15.50;99.90;;;;;;4975875;28;20073;-85
2023/08/01 01:13:44;;;;;;;44.05;22.92;;;15.40;99.90;;;;;;4977275;28;20066;-85
2023/08/01 01:16:10;;;;;;;28.77;17.73;;;15.40;99.90;;;;;;4981792;28;20050;-84
2023/08/01 01:18:36;;;;;;;63.67;25.35;;;15.40;99.90;;;;;;4981843;28;20515;-85
2023/08/01 01:21:01;;;;;;;59.38;25.58;;;15.30;99.90;;;;;;4964419;28;20405;-85
2023/08/01 01:23:28;;;;;;;42.88;22.63;;;15.30;99.90;;;;;;4984313;28;20129;-85
2023/08/01 01:25:56;;;;;;;62.95;26.55;;;15.20;99.90;;;;;;4992735;28;20098;-85
2023/08/01 01:28:22;;;;;;;55.83;25.17;;;15.20;99.90;;;;;;4975991;28;20080;-85
2023/08/01 01:30:49;;;;;;;45.55;21.38;;;15.10;99.90;;;;;;4968859;28;20077;-85
2023/08/01 01:33:15;;;;;;;66.97;26.33;;;15.10;99.90;;;;;;4970278;28;20043;-85
2023/08/01 01:35:41;;;;;;;39.95;20.00;;;15.00;99.90;;;;;;4977039;28;20467;-85
2023/08/01 01:38:07;;;;;;;47.88;21.15;;;14.90;99.90;;;;;;4976527;28;20105;-85
2023/08/01 01:40:33;;;;;;;30.40;18.50;;;14.90;99.90;;;;;;4993938;28;20046;-86
2023/08/01 01:43:00;;;;;;;43.00;22.15;;;15.00;99.90;;;;;;4970591;28;20478;-85
2023/08/01 01:45:26;;;;;;;39.65;21.10;;;14.90;99.90;;;;;;4959511;28;20049;-85
2023/08/01 01:47:52;;;;;;;40.05;20.73;;;14.80;99.90;;;;;;4968683;28;20034;-84
2023/08/01 01:50:18;;;;;;;44.72;21.58;;;14.80;99.90;;;;;;4964253;28;20061;-85
2023/08/01 01:52:44;;;;;;;47.83;22.63;;;14.80;99.90;;;;;;4986973;28;20046;-85
2023/08/01 01:55:10;;;;;;;35.85;21.38;;;14.70;99.90;;;;;;4993154;28;20070;-85
2023/08/01 01:57:36;;;;;;;66.10;26.67;;;14.80;99.90;;;;;;4976587;28;20116;-85
2023/08/01 02:00:10;;;;;;;45.42;21.75;;;14.80;99.90;;;;;;4970996;28;20034;-85
2023/08/01 02:02:36;;;;;;;102.90;31.77;;;14.70;99.90;;;;;;4962518;28;20507;-85
2023/08/01 02:05:03;;;;;;;49.63;24.35;;;14.70;99.90;;;;;;4975742;28;20445;-85
2023/08/01 02:07:29;;;;;;;46.58;21.50;;;14.80;99.90;;;;;;4965350;28;20043;-85
2023/08/01 02:09:55;;;;;;;52.28;24.17;;;14.90;99.90;;;;;;4962552;28;20046;-85
2023/08/01 02:12:20;;;;;;;28.45;18.48;;;14.90;99.90;;;;;;4966199;28;20630;-86
2023/08/01 02:14:46;;;;;;;38.00;22.10;;;14.90;99.90;;;;;;4968745;28;20125;-85
2023/08/01 02:17:12;;;;;;;82.05;28.20;;;14.90;99.90;;;;;;4976924;28;20370;-85
2023/08/01 02:19:37;;;;;;;62.30;25.92;;;14.90;99.90;;;;;;4966903;28;20037;-85
2023/08/01 02:22:03;;;;;;;37.08;18.33;;;14.90;99.90;;;;;;4964814;28;20073;-85
2023/08/01 02:24:29;;;;;;;45.30;20.63;;;15.00;99.90;;;;;;4957049;28;20472;-85
2023/08/01 02:26:54;;;;;;;27.55;16.08;;;15.00;99.90;;;;;;4956934;28;20133;-85
2023/08/01 02:29:20;;;;;;;46.72;20.95;;;15.00;99.90;;;;;;4973719;28;20037;-85
2023/08/01 02:31:45;;;;;;;84.60;24.42;;;15.00;99.90;;;;;;4968017;28;20066;-85
2023/08/01 02:34:11;;;;;;;29.65;15.52;;;14.90;99.90;;;;;;4969703;28;20070;-85
2023/08/01 02:36:36;;;;;;;31.55;16.73;;;14.90;99.90;;;;;;5000676;28;20042;-85
2023/08/01 02:39:02;;;;;;;56.42;19.92;;;14.80;99.90;;;;;;4982014;28;20042;-85
2023/08/01 02:41:28;;;;;;;45.88;18.33;;;14.80;99.90;;;;;;4966924;28;20038;-85
2023/08/01 02:43:53;;;;;;;37.85;16.60;;;14.70;99.90;;;;;;4970918;28;20038;-85
2023/08/01 02:46:19;;;;;;;29.50;15.45;;;14.70;99.90;;;;;;4957493;28;20042;-85
2023/08/01 02:48:44;;;;;;;26.25;14.13;;;14.70;99.90;;;;;;4970746;28;20097;-84
2023/08/01 02:51:10;;;;;;;35.78;15.40;;;14.60;99.90;;;;;;4979581;28;20038;-85
2023/08/01 02:53:36;;;;;;;32.33;15.20;;;14.60;99.90;;;;;;4963895;28;20516;-85
2023/08/01 02:56:03;;;;;;;64.78;20.42;;;14.60;99.90;;;;;;4987625;28;20404;-85
2023/08/01 02:58:28;;;;;;;53.17;19.05;;;14.50;99.90;;;;;;4972359;28;20050;-85
2023/08/01 03:00:54;;;;;;;39.38;17.60;;;14.50;99.90;;;;;;4983294;28;20066;-84
2023/08/01 03:03:20;;;;;;;31.73;16.70;;;14.50;99.90;;;;;;4981738;28;20062;-85
2023/08/01 03:05:45;;;;;;;38.47;18.05;;;14.60;99.90;;;;;;4986108;28;20077;-85
2023/08/01 03:08:11;;;;;;;32.30;16.58;;;14.60;99.90;;;;;;4966959;28;20046;-85
2023/08/01 03:10:36;;;;;;;75.13;23.50;;;14.60;99.90;;;;;;4966246;28;20130;-84
2023/08/01 03:13:02;;;;;;;41.85;18.27;;;14.50;99.90;;;;;;4980628;28;20047;-85
2023/08/01 03:15:28;;;;;;;50.65;19.98;;;14.60;99.90;;;;;;4982575;28;20035;-83
2023/08/01 03:17:53;;;;;;;47.13;18.25;;;14.60;99.90;;;;;;4975467;28;20038;-84
2023/08/01 03:20:19;;;;;;;38.67;17.92;;;14.60;99.90;;;;;;4969616;28;20034;-85
2023/08/01 03:22:45;;;;;;;39.53;17.70;;;14.60;99.90;;;;;;4966819;28;20468;-85
2023/08/01 03:25:10;;;;;;;53.08;20.83;;;14.70;99.90;;;;;;4959505;28;20059;-85
2023/08/01 03:27:36;;;;;;;46.45;18.35;;;14.70;99.90;;;;;;4971770;28;20114;-84
2023/08/01 03:30:04;;;;;;;64.03;22.88;;;14.70;99.90;;;;;;4965119;28;20130;-85
2023/08/01 03:32:30;;;;;;;75.40;23.10;;;14.80;99.90;;;;;;4967085;28;20524;-84
2023/08/01 03:34:55;;;;;;;38.50;15.57;;;14.80;99.90;;;;;;4971165;28;20121;-84
2023/08/01 03:37:21;;;;;;;32.65;12.75;;;14.80;99.90;;;;;;4962991;28;20034;-85
2023/08/01 03:39:47;;;;;;;34.45;12.63;;;14.70;99.90;;;;;;4979585;28;20042;-85
2023/08/01 03:42:12;;;;;;;57.97;16.83;;;14.70;99.90;;;;;;4966799;28;20038;-86
2023/08/01 03:44:38;;;;;;;32.67;11.75;;;14.70;99.90;;;;;;4956119;28;20085;-86
2023/08/01 03:47:04;;;;;;;21.08;9.90;;;14.60;99.90;;;;;;4972152;28;20039;-85
2023/08/01 03:49:29;;;;;;;13.40;6.63;;;14.60;99.90;;;;;;4956896;28;20042;-85
2023/08/01 03:51:55;;;;;;;21.05;7.40;;;14.50;99.90;;;;;;4967268;28;20069;-85
2023/08/01 03:54:21;;;;;;;15.30;7.10;;;14.50;99.90;;;;;;4991613;28;20145;-85
2023/08/01 03:56:46;;;;;;;20.23;7.68;;;14.50;99.90;;;;;;4974773;28;20038;-86
2023/08/01 03:59:14;;;;;;;13.13;7.10;;;14.40;99.90;;;;;;4970867;28;20062;-86
2023/08/01 04:01:40;;;;;;;33.97;10.60;;;14.40;99.90;;;;;;4963434;28;20047;-85
2023/08/01 04:04:06;;;;;;;19.58;7.90;;;14.40;99.90;;;;;;4958703;28;20046;-85
2023/08/01 04:06:32;;;;;;;22.33;9.52;;;14.40;99.90;;;;;;4966100;28;20400;-85
2023/08/01 04:08:59;;;;;;;19.70;9.05;;;14.50;99.90;;;;;;4965484;28;20042;-85
2023/08/01 04:11:25;;;;;;;20.30;9.25;;;14.40;99.90;;;;;;4980229;28;20421;-86
2023/08/01 04:13:51;;;;;;;12.27;6.93;;;14.40;99.90;;;;;;4986108;28;20046;-86
2023/08/01 04:16:17;;;;;;;25.15;8.48;;;14.40;99.90;;;;;;4980318;28;20031;-86
2023/08/01 04:18:42;;;;;;;14.57;7.88;;;14.30;99.90;;;;;;4970753;28;20444;-86
2023/08/01 04:21:08;;;;;;;23.65;10.13;;;14.40;99.90;;;;;;4979031;28;20047;-85
2023/08/01 04:23:34;;;;;;;13.15;7.78;;;14.30;99.90;;;;;;4991509;28;20129;-86
2023/08/01 04:25:59;;;;;;;14.15;7.55;;;14.40;99.90;;;;;;4974905;28;20092;-86
2023/08/01 04:28:25;;;;;;;12.30;7.30;;;14.40;99.90;;;;;;4977242;28;20038;-86
2023/08/01 04:30:52;;;;;;;23.15;8.55;;;14.40;99.90;;;;;;4962807;28;20077;-86
2023/08/01 04:33:18;;;;;;;15.27;7.07;;;14.30;99.90;;;;;;4988377;28;20117;-86
2023/08/01 04:35:43;;;;;;;7.13;4.60;;;14.30;99.90;;;;;;4984094;28;20043;-86
2023/08/01 04:38:10;;;;;;;15.80;7.80;;;14.30;99.90;;;;;;4979073;28;20162;-86
2023/08/01 04:40:36;;;;;;;10.23;6.15;;;14.50;99.90;;;;;;5016980;22;20135;-76
2023/08/01 04:43:02;;;;;;;16.88;7.43;;;14.40;99.90;;;;;;5036285;28;20128;-76
2023/08/01 04:45:28;;;;;;;25.85;10.65;;;14.50;99.90;;;;;;5033359;28;20045;-76
2023/08/01 04:47:53;;;;;;;21.50;9.05;;;14.60;99.90;;;;;;5031090;28;20092;-76
2023/08/01 04:50:19;;;;;;;18.98;8.25;;;14.60;99.90;;;;;;5030911;28;20081;-76
2023/08/01 04:52:45;;;;;;;24.38;10.23;;;14.70;99.90;;;;;;4999605;28;20046;-76
2023/08/01 04:55:10;;;;;;;24.17;10.43;;;14.70;99.90;;;;;;5013699;28;20504;-76
2023/08/01 04:57:36;;;;;;;26.75;11.75;;;14.70;99.90;;;;;;4999200;28;20076;-76
2023/08/01 05:00:05;;;;;;;21.20;9.35;;;14.80;99.90;;;;;;5019091;28;20096;-76
2023/08/01 05:02:31;;;;;;;31.95;10.95;;;14.80;99.90;;;;;;5013070;28;20451;-76
2023/08/01 05:04:56;;;;;;;27.50;10.18;;;14.80;99.90;;;;;;5017636;28;20116;-76
2023/08/01 05:07:22;;;;;;;39.15;12.57;;;14.90;99.90;;;;;;5014810;28;20046;-76
2023/08/01 05:09:47;;;;;;;23.08;10.27;;;14.90;99.90;;;;;;5013321;28;20042;-76
2023/08/01 05:12:13;;;;;;;39.80;13.50;;;15.00;99.90;;;;;;5008709;28;20412;-77
2023/08/01 05:14:39;;;;;;;31.85;12.20;;;14.90;99.90;;;;;;5011728;28;20119;-77
2023/08/01 05:17:04;;;;;;;44.55;14.82;;;14.90;99.90;;;;;;5019272;28;20041;-77
2023/08/01 05:19:30;;;;;;;19.67;9.20;;;14.90;99.90;;;;;;4999531;28;20547;-77
2023/08/01 05:21:56;;;;;;;47.13;14.85;;;14.90;99.90;;;;;;5014056;28;20510;-77
2023/08/01 05:24:21;;;;;;;24.65;11.77;;;14.80;99.90;;;;;;5018912;28;20041;-77
2023/08/01 05:26:47;;;;;;;24.75;10.43;;;14.80;99.90;;;;;;5001537;28;20045;-77
2023/08/01 05:29:13;;;;;;;42.65;14.50;;;14.80;99.90;;;;;;5004274;28;20466;-77
2023/08/01 05:31:39;;;;;;;42.17;14.63;;;14.80;99.90;;;;;;5012636;28;20172;-77
2023/08/01 05:34:04;;;;;;;24.85;11.85;;;14.80;99.90;;;;;;5018907;28;20083;-77
2023/08/01 05:36:30;;;;;;;22.17;10.35;;;14.70;99.90;;;;;;5013265;28;20041;-77
2023/08/01 05:38:57;;;;;;;18.65;9.57;;;14.70;99.90;;;;;;5020693;28;20033;-77
2023/08/01 05:41:23;;;;;;;20.35;9.93;;;14.80;99.90;;;;;;4994729;28;20040;-76
2023/08/01 05:43:49;;;;;;;28.38;12.10;;;14.70;99.90;;;;;;5019551;28;20034;-76
2023/08/01 05:46:15;;;;;;;18.73;8.65;;;14.70;99.90;;;;;;5019635;28;20034;-77
2023/08/01 05:48:41;;;;;;;50.72;14.57;;;14.70;99.90;;;;;;5018835;28;20033;-77
2023/08/01 05:51:07;;;;;;;38.47;14.02;;;14.60;99.90;;;;;;5013102;28;20559;-77
2023/08/01 05:53:32;;;;;;;20.77;10.35;;;14.60;99.90;;;;;;5001803;28;20045;-77
2023/08/01 05:55:58;;;;;;;10.70;6.57;;;14.70;99.90;;;;;;4994435;28;20413;-77
2023/08/01 05:58:23;;;;;;;19.45;8.88;;;14.60;99.90;;;;;;5003723;28;20043;-77
2023/08/01 06:00:49;;;;;;;21.35;9.88;;;14.60;99.90;;;;;;5018178;28;20034;-77
2023/08/01 06:03:15;;;;;;;12.43;7.22;;;14.60;99.90;;;;;;5019431;28;20049;-77
2023/08/01 06:05:41;;;;;;;12.30;6.78;;;14.60;99.90;;;;;;5024859;28;20073;-77
2023/08/01 06:08:07;;;;;;;18.70;8.55;;;14.60;99.90;;;;;;5024705;28;20069;-77
2023/08/01 06:10:34;;;;;;;17.15;9.00;;;14.70;99.90;;;;;;5020159;28;20089;-77
2023/08/01 06:12:59;;;;;;;14.68;7.80;;;14.80;99.90;;;;;;5014919;28;20033;-77
2023/08/01 06:15:25;;;;;;;27.55;11.45;;;14.70;99.90;;;;;;5020650;28;20037;-76
2023/08/01 06:17:50;;;;;;;36.05;12.05;;;14.80;99.90;;;;;;5019818;28;20037;-76
2023/08/01 06:20:16;;;;;;;17.27;8.85;;;14.80;99.90;;;;;;5020729;28;20077;-76
2023/08/01 06:22:42;;;;;;;24.25;10.05;;;14.90;99.90;;;;;;5029858;28;20041;-76
2023/08/01 06:25:08;;;;;;;22.50;8.48;;;15.00;99.90;;;;;;5013738;28;20412;-76
2023/08/01 06:27:34;;;;;;;12.88;7.03;;;15.00;99.90;;;;;;5000679;28;20051;-76
2023/08/01 06:30:00;;;;;;;16.35;7.07;;;15.00;99.90;;;;;;5019325;28;20050;-76
2023/08/01 06:32:26;;;;;;;9.05;4.78;;;15.10;99.90;;;;;;5025400;28;20519;-76
2023/08/01 06:34:52;;;;;;;11.88;6.05;;;15.10;99.90;;;;;;5025536;28;20030;-76
2023/08/01 06:37:18;;;;;;;8.60;4.53;;;15.10;99.90;;;;;;5013799;28;20547;-76
2023/08/01 06:39:43;;;;;;;9.75;4.97;;;15.10;99.90;;;;;;5012982;28;20037;-76
2023/08/01 06:42:09;;;;;;;14.70;6.95;;;15.10;99.90;;;;;;5027598;28;20045;-76
2023/08/01 06:44:35;;;;;;;16.88;7.63;;;15.10;99.90;;;;;;5031530;28;20045;-76
2023/08/01 06:47:00;;;;;;;19.67;8.45;;;15.20;99.90;;;;;;5031041;28;20046;-76
2023/08/01 06:49:26;;;;;;;19.92;8.90;;;15.20;99.90;;;;;;5025363;28;20038;-76
2023/08/01 06:51:51;;;;;;;20.67;8.23;;;15.10;99.90;;;;;;5014841;28;20034;-76
2023/08/01 06:54:17;;;;;;;16.65;7.43;;;15.10;99.90;;;;;;5000650;28;20068;-76
2023/08/01 06:56:47;;;;;;;13.23;7.15;;;15.10;99.90;;;;;;5012196;28;20124;-76
2023/08/01 06:59:14;;;;;;;20.25;8.23;;;15.10;99.90;;;;;;5022724;28;20037;-76
2023/08/01 07:01:43;;;;;;;35.22;11.20;;;15.10;99.90;;;;;;5023815;28;20033;-76
2023/08/01 07:04:09;;;;;;;27.63;10.57;;;15.20;99.90;;;;;;5017808;28;20408;-76
2023/08/01 07:06:34;;;;;;;17.83;8.13;;;15.30;99.90;;;;;;5018125;28;20046;-77
2023/08/01 07:09:00;;;;;;;13.85;7.15;;;15.50;99.90;;;;;;4994874;28;20483;-76
2023/08/01 07:11:25;;;;;;;32.15;12.73;;;15.60;99.90;;;;;;5011029;28;20092;-76
2023/08/01 07:13:51;;;;;;;14.35;7.95;;;15.80;99.90;;;;;;5008317;28;20177;-77
2023/08/01 07:16:16;;;;;;;15.00;9.07;;;16.10;99.90;;;;;;5002185;28;20038;-76
2023/08/01 07:18:42;;;;;;;11.90;6.13;;;16.30;99.90;;;;;;5006259;28;20132;-76
2023/08/01 07:21:08;;;;;;;24.13;9.90;;;16.50;99.90;;;;;;5014972;28;20074;-77
2023/08/01 07:23:35;;;;;;;19.88;9.38;;;16.50;99.90;;;;;;5013889;28;20041;-76
2023/08/01 07:26:00;;;;;;;21.17;9.77;;;16.60;99.90;;;;;;5005933;28;20945;-76
2023/08/01 07:28:26;;;;;;;22.20;7.82;;;16.90;99.90;;;;;;4998293;28;20084;-76
2023/08/01 07:30:59;;;;;;;16.13;6.93;;;16.90;99.90;;;;;;4989779;28;20506;-76
2023/08/01 07:33:25;;;;;;;22.63;8.25;;;17.10;99.90;;;;;;5008972;28;20519;-76
2023/08/01 07:35:50;;;;;;;18.30;7.95;;;17.10;99.90;;;;;;5009976;28;20037;-76
2023/08/01 07:38:17;;;;;;;14.52;6.20;;;17.10;99.90;;;;;;5007948;28;20037;-76
2023/08/01 07:40:42;;;;;;;29.15;8.55;;;17.10;99.90;;;;;;5019212;28;20118;-76
2023/08/01 07:43:08;;;;;;;21.33;8.27;;;17.00;99.90;;;;;;4988710;28;20081;-79
2023/08/01 07:45:34;;;;;;;26.77;9.27;;;16.90;99.90;;;;;;5017633;28;20069;-79
2023/08/01 07:48:00;;;;;;;24.88;8.65;;;16.70;99.90;;;;;;5008751;28;20053;-77
2023/08/01 07:50:26;;;;;;;19.63;7.38;;;16.60;99.90;;;;;;5003892;28;20034;-77
2023/08/01 07:52:52;;;;;;;21.08;7.45;;;16.50;99.90;;;;;;5002221;28;20497;-76
2023/08/01 07:55:18;;;;;;;32.40;10.48;;;16.40;99.90;;;;;;4988726;28;20105;-76
2023/08/01 07:57:44;;;;;;;34.00;11.50;;;16.40;99.90;;;;;;4998876;28;20042;-77
2023/08/01 08:00:10;;;;;;;26.77;9.50;;;16.30;99.90;;;;;;5013303;28;20049;-79
2023/08/01 08:02:36;;;;;;;26.45;9.63;;;16.30;99.90;;;;;;4999449;28;20522;-79
2023/08/01 08:05:02;;;;;;;32.00;11.48;;;16.20;99.90;;;;;;5003998;28;20034;-79
2023/08/01 08:07:28;;;;;;;23.08;8.60;;;16.20;99.90;;;;;;5016382;28;20034;-79
2023/08/01 08:09:55;;;;;;;24.40;9.73;;;16.10;99.90;;;;;;4991162;28;20038;-79
2023/08/01 08:12:21;;;;;;;30.88;11.68;;;16.00;99.90;;;;;;4994312;28;20057;-79
2023/08/01 08:14:47;;;;;;;26.70;10.82;;;16.10;99.90;;;;;;5010323;28;20042;-78
2023/08/01 08:17:13;;;;;;;44.42;16.15;;;16.10;99.90;;;;;;4993366;28;20042;-79
2023/08/01 08:19:39;;;;;;;31.27;13.77;;;16.30;99.90;;;;;;5011395;28;20037;-79
2023/08/01 08:22:04;;;;;;;30.35;14.27;;;16.30;99.90;;;;;;5015555;28;20096;-79
2023/08/01 08:24:30;;;;;;;32.47;14.35;;;16.40;99.90;;;;;;5014859;28;20046;-78
2023/08/01 08:26:56;;;;;;;28.23;14.07;;;16.60;99.90;;;;;;5006159;28;20507;-76
2023/08/01 08:29:21;;;;;;;38.05;16.73;;;16.70;99.90;;;;;;5010280;28;20532;-77
2023/08/01 08:31:47;;;;;;;30.38;13.18;;;16.80;99.90;;;;;;5013656;28;20574;-77
2023/08/01 08:34:13;;;;;;;37.55;15.13;;;16.90;99.90;;;;;;5019909;28;20403;-76
2023/08/01 08:36:39;;;;;;;24.23;10.90;;;17.00;99.90;;;;;;5005224;28;20185;-76
2023/08/01 08:39:04;;;;;;;18.73;9.80;;;17.10;99.90;;;;;;5008036;28;20391;-77
2023/08/01 08:41:39;;;;;;;22.27;10.55;;;17.10;99.90;;;;;;4992887;28;20037;-77
2023/08/01 08:44:08;;;;;;;17.33;6.70;;;17.10;99.90;;;;;;5021492;28;20052;-76
2023/08/01 08:46:41;;;;;;;27.17;8.35;;;17.00;99.90;;;;;;4999502;28;20045;-77
2023/08/01 08:49:07;;;;;;;20.02;7.72;;;16.90;99.90;;;;;;4994275;28;20069;-79
2023/08/01 08:51:33;;;;;;;22.17;9.40;;;16.70;99.90;;;;;;5013552;28;20100;-79
2023/08/01 08:54:00;;;;;;;21.35;8.85;;;16.50;99.90;;;;;;4998659;28;20088;-78
2023/08/01 08:56:26;;;;;;;29.20;11.57;;;16.50;99.90;;;;;;5003139;28;20035;-77
2023/08/01 08:58:52;;;;;;;32.90;12.18;;;16.40;99.90;;;;;;5014120;28;20038;-77
2023/08/01 09:01:18;;;;;;;24.27;11.00;;;16.30;99.90;;;;;;5014805;28;20041;-77
2023/08/01 09:03:44;;;;;;;30.00;12.60;;;16.40;99.90;;;;;;5006312;28;20046;-77
2023/08/01 09:06:19;;;;;;;22.05;10.32;;;16.40;99.90;;;;;;5016534;28;20043;-77
2023/08/01 09:08:51;;;;;;;19.88;8.43;;;16.30;99.90;;;;;;4994354;28;20489;-77
2023/08/01 09:11:17;;;;;;;16.77;7.55;;;16.20;99.90;;;;;;5018341;28;20046;-77
2023/08/01 09:13:43;;;;;;;17.60;7.72;;;16.30;99.90;;;;;;5002080;28;20057;-77
2023/08/01 09:16:10;;;;;;;17.27;8.45;;;16.00;99.90;;;;;;4996751;28;20030;-76
2023/08/01 09:18:47;;;;;;;20.10;9.77;;;15.90;99.90;;;;;;4998060;28;20080;-76
2023/08/01 09:21:12;;;;;;;21.88;13.07;;;15.90;99.90;;;;;;4976451;28;20038;-77
2023/08/01 09:23:38;;;;;;;22.10;11.73;;;15.80;99.90;;;;;;4992883;28;20088;-76
2023/08/01 09:26:18;;;;;;;25.58;12.40;;;15.80;99.90;;;;;;5005473;28;20038;-77
2023/08/01 09:28:43;;;;;;;29.33;13.95;;;15.80;99.90;;;;;;5005204;28;20052;-76
2023/08/01 09:31:11;;;;;;;34.60;16.15;;;15.90;99.90;;;;;;4997861;28;20137;-76
2023/08/01 09:33:43;;;;;;;26.00;16.08;;;15.90;99.90;;;;;;5006385;28;20049;-77
2023/08/01 09:36:09;;;;;;;32.15;16.05;;;15.90;99.90;;;;;;5011981;28;20037;-76
2023/08/01 09:38:36;;;;;;;28.95;14.60;;;16.10;99.90;;;;;;4989156;28;20171;-76
2023/08/01 09:41:03;;;;;;;37.00;19.38;;;16.20;99.90;;;;;;5007047;28;20492;-78
2023/08/01 09:43:37;;;;;;;38.03;18.33;;;16.20;99.90;;;;;;4999500;28;20129;-77
2023/08/01 09:46:03;;;;;;;40.47;20.23;;;16.30;99.90;;;;;;5015768;28;20053;-78
2023/08/01 09:48:30;;;;;;;48.47;20.48;;;16.10;99.90;;;;;;5004520;28;20485;-78
2023/08/01 09:51:10;;;;;;;39.90;19.55;;;16.20;99.90;;;;;;5003431;28;20092;-78
2023/08/01 09:53:47;;;;;;;18.00;9.55;;;16.20;99.90;;;;;;5009902;28;20045;-77
2023/08/01 09:56:16;;;;;;;30.13;13.43;;;16.10;99.90;;;;;;5016964;28;20499;-78
2023/08/01 09:58:42;;;;;;;18.83;10.40;;;16.10;99.90;;;;;;5006735;28;20038;-77
2023/08/01 10:01:08;;;;;;;31.23;12.68;;;16.00;99.90;;;;;;4999769;28;20034;-78
2023/08/01 10:03:34;;;;;;;25.08;12.50;;;15.90;99.90;;;;;;4987776;28;20493;-78
2023/08/01 10:06:00;;;;;;;41.92;16.15;;;15.90;99.90;;;;;;5017873;28;20049;-78
2023/08/01 10:08:28;;;;;;;24.30;13.20;;;15.90;99.90;;;;;;4998546;28;20049;-78
2023/08/01 10:10:56;;;;;;;25.38;12.27;;;15.90;99.90;;;;;;5016409;28;20396;-77
2023/08/01 10:13:24;;;;;;;20.17;10.27;;;16.00;99.90;;;;;;4998877;28;20031;-77
2023/08/01 10:15:53;;;;;;;16.90;9.00;;;16.00;99.90;;;;;;4999412;28;20073;-77
2023/08/01 10:18:20;;;;;;;33.00;13.70;;;16.00;99.90;;;;;;5012117;28;20038;-76
2023/08/01 10:20:46;;;;;;;21.40;10.95;;;16.10;99.90;;;;;;5009333;28;20510;-76
2023/08/01 10:23:13;;;;;;;18.45;9.68;;;16.10;99.90;;;;;;5008593;28;20058;-76
2023/08/01 10:25:39;;;;;;;24.52;11.35;;;16.10;99.90;;;;;;5014786;28;20042;-75
2023/08/01 10:28:06;;;;;;;15.43;8.68;;;16.20;99.90;;;;;;5003892;28;20042;-74
2023/08/01 10:30:32;;;;;;;18.02;9.73;;;16.30;99.90;;;;;;4989937;28;20488;-75
2023/08/01 10:32:59;;;;;;;13.30;6.70;;;16.30;99.90;;;;;;5006343;28;20042;-76
2023/08/01 10:35:36;;;;;;;20.50;10.02;;;16.40;99.90;;;;;;5027868;28;20117;-76
2023/08/01 10:38:05;;;;;;;43.83;15.35;;;16.40;99.90;;;;;;5007767;28;20042;-76
2023/08/01 10:40:39;;;;;;;15.55;8.25;;;16.50;99.90;;;;;;5032591;23;20142;-84
2023/08/01 10:43:05;;;;;;;26.05;11.02;;;16.70;99.90;;;;;;5000781;28;20136;-83
2023/08/01 10:45:31;;;;;;;18.45;9.60;;;16.70;99.90;;;;;;5011962;28;20033;-86
2023/08/01 10:48:08;;;;;;;26.27;9.70;;;16.70;99.90;;;;;;5021631;28;20082;-85
2023/08/01 10:50:34;;;;;;;27.13;9.90;;;16.70;99.90;;;;;;5004775;28;20101;-85
2023/08/01 10:53:08;;;;;;;10.50;3.72;;;16.50;99.90;;;;;;4975912;28;20046;-87
2023/08/01 10:55:45;;;;;;;11.75;4.10;;;16.40;99.90;;;;;;4975962;28;20078;-86
2023/08/01 10:58:12;;;;;;;37.45;12.00;;;16.20;99.90;;;;;;4989726;28;20035;-84
2023/08/01 11:00:38;;;;;;;14.55;5.30;;;16.10;99.90;;;;;;4983664;28;20135;-86
2023/08/01 11:03:04;;;;;;;17.63;7.15;;;15.80;99.90;;;;;;4985402;28;20069;-84
2023/08/01 11:05:29;;;;;;;21.60;8.85;;;15.80;99.90;;;;;;4993810;28;20447;-86
2023/08/01 11:08:03;;;;;;;18.00;8.43;;;15.70;99.90;;;;;;4985199;28;20096;-84
2023/08/01 11:10:31;;;;;;;13.05;6.72;;;15.80;99.90;;;;;;4974882;28;20034;-84
2023/08/01 11:12:58;;;;;;;13.93;6.13;;;15.80;99.90;;;;;;4986810;28;20034;-84
2023/08/01 11:15:24;;;;;;;12.93;7.10;;;15.90;99.90;;;;;;4977602;28;20496;-81
2023/08/01 11:17:53;;;;;;;13.27;4.80;;;16.10;99.90;;;;;;4991733;28;20081;-84
2023/08/01 11:20:22;;;;;;;18.52;8.48;;;16.10;99.90;;;;;;4973446;28;20035;-83
2023/08/01 11:22:59;;;;;;;18.05;8.68;;;16.20;99.90;;;;;;4981701;28;20133;-82
2023/08/01 11:25:40;;;;;;;31.85;13.55;;;16.40;99.90;;;;;;4975862;28;20030;-84
2023/08/01 11:28:08;;;;;;;35.33;16.23;;;16.70;99.90;;;;;;4990700;28;20034;-87
2023/08/01 11:30:35;;;;;;;20.27;12.05;;;17.20;99.90;;;;;;4981328;28;20295;-87
2023/08/01 11:33:02;;;;;;;18.55;11.70;;;18.00;99.90;;;;;;4975339;28;20046;-89
2023/08/01 11:35:28;;;;;;;14.98;11.35;;;18.60;99.90;;;;;;4987330;28;20298;-89
2023/08/01 11:37:55;;;;;;;12.23;6.72;;;19.20;99.90;;;;;;4996548;28;20193;-89
2023/08/01 11:40:21;;;;;;;14.10;8.05;;;19.70;99.90;;;;;;4997471;28;20401;-87
2023/08/01 11:42:53;;;;;;;12.93;5.03;;;20.20;99.90;;;;;;4975633;28;20053;-83
2023/08/01 11:45:19;;;;;;;9.45;3.20;;;20.60;99.90;;;;;;4998422;28;20400;-83
2023/08/01 11:47:46;;;;;;;9.95;3.65;;;20.90;99.90;;;;;;4998199;28;20050;-82
2023/08/01 11:50:15;;;;;;;9.60;3.30;;;21.10;99.90;;;;;;4969140;28;20128;-81
2023/08/01 11:52:40;;;;;;;11.48;3.40;;;21.30;99.90;;;;;;4962012;28;20083;-81
2023/08/01 11:55:07;;;;;;;6.95;3.10;;;21.20;99.90;;;;;;4986557;28;20120;-81
2023/08/01 11:57:32;;;;;;;7.63;2.70;;;20.90;99.90;;;;;;5006992;28;20511;-81
2023/08/01 11:59:58;;;;;;;8.00;3.03;;;20.60;99.90;;;;;;5015156;28;20042;-81
2023/08/01 12:02:25;;;;;;;10.68;3.03;;;20.20;99.90;;;;;;4998459;28;20049;-81
2023/08/01 12:04:52;;;;;;;8.70;3.60;;;19.70;99.90;;;;;;4976879;28;20402;-83
2023/08/01 12:07:18;;;;;;;10.82;3.65;;;19.80;99.90;;;;;;5001982;28;20562;-83
2023/08/01 12:09:54;;;;;;;7.55;3.53;;;20.20;99.90;;;;;;4995067;28;20038;-82
2023/08/01 12:12:19;;;;;;;8.20;3.10;;;20.60;99.90;;;;;;4995079;28;20046;-81
2023/08/01 12:14:45;;;;;;;7.53;2.92;;;21.10;99.90;;;;;;4982512;28;20092;-83
2023/08/01 12:17:11;;;;;;;9.20;3.22;;;21.50;99.90;;;;;;4980235;28;20065;-83
2023/08/01 12:19:36;;;;;;;8.13;2.60;;;22.00;99.90;;;;;;4989711;28;20038;-82
2023/08/01 12:22:02;;;;;;;8.43;2.80;;;22.30;99.90;;;;;;5002388;28;20085;-83
2023/08/01 12:24:27;;;;;;;7.72;2.50;;;22.50;99.90;;;;;;5013462;28;20046;-84
2023/08/01 12:26:53;;;;;;;6.90;2.15;;;22.70;99.90;;;;;;5001041;28;20044;-83